首页
METAR-TAF:

METAR-TAF

机场 :

匹兹堡国际机场

匹兹堡, 宾夕法尼亚州, 美国

纬度: 40-30-14N, 经度: 080-15-59W, 海拔: 366米

当前天气观测

该预报发布于1小时和6分钟前的07:51 UTC
风速4节,风向西转西南
温度 20°C
湿度 78%
气压 1018 hPa
能見度: 16.1公里
散云层高于11000英尺
散云层高于25000英尺

METAR: KPIT 260751Z 24004KT 10SM SCT110 SCT250 20/16 A3006 RMK AO2 SLP179 T02000156

时间: 04:57 (08:57 UTC)

预报

该预报发布于3小时和37分钟前的05:20 UTC
预报有效从26日的 06点(UTC)到 27日的 12点(UTC)
风速5节,风向多变
能見度: 10公里
天空无云
从 26日的 1700点(UTC)
风速10节,风向西南,有时为18节阵风
能見度: 10公里
散云层高于4000英尺
从 27日的 0000点(UTC)
风速5节,风向多变
能見度: 10公里
散云层高于25000英尺

TAF: KPIT 260520Z 2606/2712 VRB05KT P6SM SKC FM261700 23010G18KT P6SM SCT040 FM270000 VRB05KT P6SM SCT250

超过4000个机场的气象观测和天气预报(METAR&TAF报告)。

可查询的气象台以黄色和红色小点在地图上表示。

将鼠标移到小点上方,可查看气象台名称。

然后点击查看天气观测和预报。

如需切换地图:点击带黑十字的绿色按钮放大地图;点击带横线的绿色按钮缩小地图;或者点击绿色箭头查看邻近地区的地图。


METAR-TAF: